sensor_id;sensor_type;location;lat;lon;timestamp;P1;durP1;ratioP1;P2;durP2;ratioP2
15504;SDS011;7854;52.184;5.942;2023-05-10T00:03:18;50;;;24;;
15504;SDS011;7854;52.184;5.942;2023-05-10T00:03:18;33;;;22;;
15504;SDS011;7854;52.184;5.942;2023-05-10T00:05:28;24;;;19;;
15504;SDS011;7854;52.184;5.942;2023-05-10T00:07:43;20;;;17;;
15504;SDS011;7854;52.184;5.942;2023-05-10T00:09:58;24;;;19;;
15504;SDS011;7854;52.184;5.942;2023-05-10T00:12:12;23;;;20;;
15504;SDS011;7854;52.184;5.942;2023-05-10T00:14:26;46;;;24;;
15504;SDS011;7854;52.184;5.942;2023-05-10T00:16:40;31;;;22;;
15504;SDS011;7854;52.184;5.942;2023-05-10T00:18:54;30;;;22;;
15504;SDS011;7854;52.184;5.942;2023-05-10T00:21:09;55;;;27;;
15504;SDS011;7854;52.184;5.942;2023-05-10T00:23:23;33;;;23;;
15504;SDS011;7854;52.184;5.942;2023-05-10T00:25:37;46;;;26;;
15504;SDS011;7854;52.184;5.942;2023-05-10T00:27:52;39;;;25;;
15504;SDS011;7854;52.184;5.942;2023-05-10T00:30:07;45;;;27;;
15504;SDS011;7854;52.184;5.942;2023-05-10T00:32:21;34;;;24;;
15504;SDS011;7854;52.184;5.942;2023-05-10T00:34:35;35;;;24;;
15504;SDS011;7854;52.184;5.942;2023-05-10T00:36:50;41;;;26;;
15504;SDS011;7854;52.184;5.942;2023-05-10T00:39:04;88;;;35;;
15504;SDS011;7854;52.184;5.942;2023-05-10T00:41:19;74;;;32;;
15504;SDS011;7854;52.184;5.942;2023-05-10T00:43:33;38;;;26;;
15504;SDS011;7854;52.184;5.942;2023-05-10T00:45:48;40;;;26;;
15504;SDS011;7854;52.184;5.942;2023-05-10T00:48:02;57;;;30;;
15504;SDS011;7854;52.184;5.942;2023-05-10T00:50:16;46;;;27;;
15504;SDS011;7854;52.184;5.942;2023-05-10T00:52:31;88;;;36;;
15504;SDS011;7854;52.184;5.942;2023-05-10T00:54:45;56;;;29;;
15504;SDS011;7854;52.184;5.942;2023-05-10T00:56:59;81;;;35;;
15504;SDS011;7854;52.184;5.942;2023-05-10T01:01:28;46;;;30;;
15504;SDS011;7854;52.184;5.942;2023-05-10T01:03:43;105;;;38;;
15504;SDS011;7854;52.184;5.942;2023-05-10T01:05:57;57;;;30;;
15504;SDS011;7854;52.184;5.942;2023-05-10T01:08:12;66;;;33;;
15504;SDS011;7854;52.184;5.942;2023-05-10T01:10:26;89;;;35;;
15504;SDS011;7854;52.184;5.942;2023-05-10T01:12:42;60;;;33;;
15504;SDS011;7854;52.184;5.942;2023-05-10T01:14:55;48;;;29;;
15504;SDS011;7854;52.184;5.942;2023-05-10T01:17:10;74;;;35;;
15504;SDS011;7854;52.184;5.942;2023-05-10T01:19:26;67;;;33;;
15504;SDS011;7854;52.184;5.942;2023-05-10T01:21:40;58;;;32;;
15504;SDS011;7854;52.184;5.942;2023-05-10T01:23:59;96;;;37;;
15504;SDS011;7854;52.184;5.942;2023-05-10T01:26:14;64;;;32;;
15504;SDS011;7854;52.184;5.942;2023-05-10T01:28:27;71;;;36;;
15504;SDS011;7854;52.184;5.942;2023-05-10T01:31:22;89;;;39;;
15504;SDS011;7854;52.184;5.942;2023-05-10T01:32:52;97;;;40;;
15504;SDS011;7854;52.184;5.942;2023-05-10T01:35:06;117;;;44;;
15504;SDS011;7854;52.184;5.942;2023-05-10T01:37:20;106;;;41;;
15504;SDS011;7854;52.184;5.942;2023-05-10T01:39:36;71;;;37;;
15504;SDS011;7854;52.184;5.942;2023-05-10T01:41:49;107;;;43;;
15504;SDS011;7854;52.184;5.942;2023-05-10T01:44:05;77;;;37;;
15504;SDS011;7854;52.184;5.942;2023-05-10T01:48:32;128;;;45;;
15504;SDS011;7854;52.184;5.942;2023-05-10T01:50:46;78;;;38;;
15504;SDS011;7854;52.184;5.942;2023-05-10T01:53:01;109;;;41;;
15504;SDS011;7854;52.184;5.942;2023-05-10T01:55:16;101;;;41;;
15504;SDS011;7854;52.184;5.942;2023-05-10T01:57:32;106;;;44;;
15504;SDS011;7854;52.184;5.942;2023-05-10T01:59:44;146;;;47;;
15504;SDS011;7854;52.184;5.942;2023-05-10T02:01:59;94;;;42;;
15504;SDS011;7854;52.184;5.942;2023-05-10T02:04:14;164;;;49;;
15504;SDS011;7854;52.184;5.942;2023-05-10T02:06:28;95;;;36;;
15504;SDS011;7854;52.184;5.942;2023-05-10T02:08:42;141;;;45;;
15504;SDS011;7854;52.184;5.942;2023-05-10T02:10:56;100;;;42;;
15504;SDS011;7854;52.184;5.942;2023-05-10T02:13:11;120;;;44;;
15504;SDS011;7854;52.184;5.942;2023-05-10T02:15:25;130;;;44;;
15504;SDS011;7854;52.184;5.942;2023-05-10T02:17:39;133;;;46;;
15504;SDS011;7854;52.184;5.942;2023-05-10T02:19:54;157;;;50;;
15504;SDS011;7854;52.184;5.942;2023-05-10T02:22:09;117;;;47;;
15504;SDS011;7854;52.184;5.942;2023-05-10T02:24:23;105;;;43;;
15504;SDS011;7854;52.184;5.942;2023-05-10T02:26:37;121;;;43;;
15504;SDS011;7854;52.184;5.942;2023-05-10T02:28:52;130;;;49;;
15504;SDS011;7854;52.184;5.942;2023-05-10T02:31:06;140;;;49;;
15504;SDS011;7854;52.184;5.942;2023-05-10T02:33:21;141;;;47;;
15504;SDS011;7854;52.184;5.942;2023-05-10T02:35:35;134;;;50;;
15504;SDS011;7854;52.184;5.942;2023-05-10T02:37:49;132;;;46;;
15504;SDS011;7854;52.184;5.942;2023-05-10T02:40:05;180;;;57;;
15504;SDS011;7854;52.184;5.942;2023-05-10T02:42:18;134;;;49;;
15504;SDS011;7854;52.184;5.942;2023-05-10T02:44:32;127;;;50;;
15504;SDS011;7854;52.184;5.942;2023-05-10T02:46:47;177;;;56;;
15504;SDS011;7854;52.184;5.942;2023-05-10T02:49:01;152;;;57;;
15504;SDS011;7854;52.184;5.942;2023-05-10T02:51:16;182;;;55;;
15504;SDS011;7854;52.184;5.942;2023-05-10T02:53:31;123;;;47;;
15504;SDS011;7854;52.184;5.942;2023-05-10T02:55:44;120;;;47;;
15504;SDS011;7854;52.184;5.942;2023-05-10T02:58:00;149;;;55;;
15504;SDS011;7854;52.184;5.942;2023-05-10T03:00:13;157;;;56;;
15504;SDS011;7854;52.184;5.942;2023-05-10T03:02:27;134;;;50;;
15504;SDS011;7854;52.184;5.942;2023-05-10T03:04:42;146;;;55;;
15504;SDS011;7854;52.184;5.942;2023-05-10T03:06:56;268;;;65;;
15504;SDS011;7854;52.184;5.942;2023-05-10T03:09:11;190;;;65;;
15504;SDS011;7854;52.184;5.942;2023-05-10T03:11:29;149;;;55;;
15504;SDS011;7854;52.184;5.942;2023-05-10T03:13:43;133;;;52;;
15504;SDS011;7854;52.184;5.942;2023-05-10T03:15:55;132;;;52;;
15504;SDS011;7854;52.184;5.942;2023-05-10T03:18:09;131;;;53;;
15504;SDS011;7854;52.184;5.942;2023-05-10T03:20:24;131;;;53;;
15504;SDS011;7854;52.184;5.942;2023-05-10T03:22:39;123;;;48;;
15504;SDS011;7854;52.184;5.942;2023-05-10T03:24:53;117;;;51;;
15504;SDS011;7854;52.184;5.942;2023-05-10T03:29:21;136;;;56;;
15504;SDS011;7854;52.184;5.942;2023-05-10T03:31:35;171;;;61;;
15504;SDS011;7854;52.184;5.942;2023-05-10T03:33:50;216;;;67;;
15504;SDS011;7854;52.184;5.942;2023-05-10T03:36:04;139;;;55;;
15504;SDS011;7854;52.184;5.942;2023-05-10T03:38:19;124;;;52;;
15504;SDS011;7854;52.184;5.942;2023-05-10T03:40:33;182;;;66;;
15504;SDS011;7854;52.184;5.942;2023-05-10T03:42:47;142;;;61;;
15504;SDS011;7854;52.184;5.942;2023-05-10T03:45:02;157;;;61;;
15504;SDS011;7854;52.184;5.942;2023-05-10T03:47:16;118;;;50;;
15504;SDS011;7854;52.184;5.942;2023-05-10T03:49:31;213;;;69;;
15504;SDS011;7854;52.184;5.942;2023-05-10T03:51:45;153;;;54;;
15504;SDS011;7854;52.184;5.942;2023-05-10T03:54:00;125;;;53;;
15504;SDS011;7854;52.184;5.942;2023-05-10T03:56:14;121;;;51;;
15504;SDS011;7854;52.184;5.942;2023-05-10T03:58:29;149;;;56;;
15504;SDS011;7854;52.184;5.942;2023-05-10T04:00:43;131;;;52;;
15504;SDS011;7854;52.184;5.942;2023-05-10T04:02:58;148;;;55;;
15504;SDS011;7854;52.184;5.942;2023-05-10T04:05:12;231;;;69;;
15504;SDS011;7854;52.184;5.942;2023-05-10T04:07:26;148;;;55;;
15504;SDS011;7854;52.184;5.942;2023-05-10T04:09:41;121;;;49;;
15504;SDS011;7854;52.184;5.942;2023-05-10T04:11:55;168;;;57;;
15504;SDS011;7854;52.184;5.942;2023-05-10T04:14:10;127;;;48;;
15504;SDS011;7854;52.184;5.942;2023-05-10T04:16:24;116;;;45;;
15504;SDS011;7854;52.184;5.942;2023-05-10T04:18:38;121;;;47;;
15504;SDS011;7854;52.184;5.942;2023-05-10T04:20:52;113;;;43;;
15504;SDS011;7854;52.184;5.942;2023-05-10T04:23:07;108;;;42;;
15504;SDS011;7854;52.184;5.942;2023-05-10T04:25:21;117;;;49;;
15504;SDS011;7854;52.184;5.942;2023-05-10T04:27:35;177;;;55;;
15504;SDS011;7854;52.184;5.942;2023-05-10T04:29:50;111;;;45;;
15504;SDS011;7854;52.184;5.942;2023-05-10T04:32:05;186;;;52;;
15504;SDS011;7854;52.184;5.942;2023-05-10T04:34:19;142;;;47;;
15504;SDS011;7854;52.184;5.942;2023-05-10T04:36:33;154;;;52;;
15504;SDS011;7854;52.184;5.942;2023-05-10T04:38:48;177;;;50;;
15504;SDS011;7854;52.184;5.942;2023-05-10T04:41:04;139;;;48;;
15504;SDS011;7854;52.184;5.942;2023-05-10T04:43:17;154;;;49;;
15504;SDS011;7854;52.184;5.942;2023-05-10T04:45:31;100;;;40;;
15504;SDS011;7854;52.184;5.942;2023-05-10T04:47:45;135;;;46;;
15504;SDS011;7854;52.184;5.942;2023-05-10T04:50:00;114;;;40;;
15504;SDS011;7854;52.184;5.942;2023-05-10T04:52:15;150;;;49;;
15504;SDS011;7854;52.184;5.942;2023-05-10T04:54:29;132;;;47;;
15504;SDS011;7854;52.184;5.942;2023-05-10T04:56:43;152;;;47;;
15504;SDS011;7854;52.184;5.942;2023-05-10T04:58:58;131;;;45;;
15504;SDS011;7854;52.184;5.942;2023-05-10T05:01:12;226;;;53;;
15504;SDS011;7854;52.184;5.942;2023-05-10T05:03:27;176;;;52;;
15504;SDS011;7854;52.184;5.942;2023-05-10T05:05:41;149;;;46;;
15504;SDS011;7854;52.184;5.942;2023-05-10T05:10:10;194;;;51;;
15504;SDS011;7854;52.184;5.942;2023-05-10T05:12:25;158;;;49;;
15504;SDS011;7854;52.184;5.942;2023-05-10T05:14:39;153;;;47;;
15504;SDS011;7854;52.184;5.942;2023-05-10T05:16:53;167;;;48;;
15504;SDS011;7854;52.184;5.942;2023-05-10T05:19:07;152;;;48;;
15504;SDS011;7854;52.184;5.942;2023-05-10T05:21:22;181;;;53;;
15504;SDS011;7854;52.184;5.942;2023-05-10T05:23:37;176;;;49;;
15504;SDS011;7854;52.184;5.942;2023-05-10T05:25:51;165;;;45;;
15504;SDS011;7854;52.184;5.942;2023-05-10T05:28:05;233;;;55;;
15504;SDS011;7854;52.184;5.942;2023-05-10T05:30:20;173;;;52;;
15504;SDS011;7854;52.184;5.942;2023-05-10T05:32:35;192;;;54;;
15504;SDS011;7854;52.184;5.942;2023-05-10T05:34:49;203;;;54;;
15504;SDS011;7854;52.184;5.942;2023-05-10T05:37:03;152;;;48;;
15504;SDS011;7854;52.184;5.942;2023-05-10T05:39:17;175;;;47;;
15504;SDS011;7854;52.184;5.942;2023-05-10T05:41:32;250;;;54;;
15504;SDS011;7854;52.184;5.942;2023-05-10T05:43:46;156;;;47;;
15504;SDS011;7854;52.184;5.942;2023-05-10T05:45:59;154;;;47;;
15504;SDS011;7854;52.184;5.942;2023-05-10T05:48:14;148;;;44;;
15504;SDS011;7854;52.184;5.942;2023-05-10T05:50:28;162;;;45;;
15504;SDS011;7854;52.184;5.942;2023-05-10T05:52:43;158;;;46;;
15504;SDS011;7854;52.184;5.942;2023-05-10T05:54:57;200;;;47;;
15504;SDS011;7854;52.184;5.942;2023-05-10T05:57:11;148;;;45;;
15504;SDS011;7854;52.184;5.942;2023-05-10T05:59:26;145;;;44;;
15504;SDS011;7854;52.184;5.942;2023-05-10T06:01:40;153;;;44;;
15504;SDS011;7854;52.184;5.942;2023-05-10T06:03:55;152;;;46;;
15504;SDS011;7854;52.184;5.942;2023-05-10T06:06:09;139;;;41;;
15504;SDS011;7854;52.184;5.942;2023-05-10T06:08:23;160;;;45;;
15504;SDS011;7854;52.184;5.942;2023-05-10T06:10:38;184;;;50;;
15504;SDS011;7854;52.184;5.942;2023-05-10T06:12:52;151;;;48;;
15504;SDS011;7854;52.184;5.942;2023-05-10T06:15:07;229;;;53;;
15504;SDS011;7854;52.184;5.942;2023-05-10T06:17:21;183;;;47;;
15504;SDS011;7854;52.184;5.942;2023-05-10T06:19:36;142;;;42;;
15504;SDS011;7854;52.184;5.942;2023-05-10T06:21:50;156;;;46;;
15504;SDS011;7854;52.184;5.942;2023-05-10T06:24:05;141;;;43;;
15504;SDS011;7854;52.184;5.942;2023-05-10T06:26:19;146;;;45;;
15504;SDS011;7854;52.184;5.942;2023-05-10T06:28:34;139;;;43;;
15504;SDS011;7854;52.184;5.942;2023-05-10T06:30:47;156;;;46;;
15504;SDS011;7854;52.184;5.942;2023-05-10T06:33:02;132;;;44;;
15504;SDS011;7854;52.184;5.942;2023-05-10T06:35:16;109;;;40;;
15504;SDS011;7854;52.184;5.942;2023-05-10T06:37:31;127;;;43;;
15504;SDS011;7854;52.184;5.942;2023-05-10T06:39:45;137;;;43;;
15504;SDS011;7854;52.184;5.942;2023-05-10T06:41:59;133;;;44;;
15504;SDS011;7854;52.184;5.942;2023-05-10T06:44:14;138;;;41;;
15504;SDS011;7854;52.184;5.942;2023-05-10T06:46:28;118;;;41;;
15504;SDS011;7854;52.184;5.942;2023-05-10T06:48:42;131;;;41;;
15504;SDS011;7854;52.184;5.942;2023-05-10T06:50:57;122;;;39;;
15504;SDS011;7854;52.184;5.942;2023-05-10T06:53:12;159;;;47;;
15504;SDS011;7854;52.184;5.942;2023-05-10T06:55:26;154;;;45;;
15504;SDS011;7854;52.184;5.942;2023-05-10T06:57:40;171;;;44;;
15504;SDS011;7854;52.184;5.942;2023-05-10T06:59:55;178;;;50;;
15504;SDS011;7854;52.184;5.942;2023-05-10T07:02:09;123;;;40;;
15504;SDS011;7854;52.184;5.942;2023-05-10T07:04:24;142;;;44;;
15504;SDS011;7854;52.184;5.942;2023-05-10T07:06:38;117;;;38;;
15504;SDS011;7854;52.184;5.942;2023-05-10T07:08:53;103;;;37;;
15504;SDS011;7854;52.184;5.942;2023-05-10T07:11:07;128;;;43;;
15504;SDS011;7854;52.184;5.942;2023-05-10T07:13:22;114;;;38;;
15504;SDS011;7854;52.184;5.942;2023-05-10T07:15:36;142;;;46;;
15504;SDS011;7854;52.184;5.942;2023-05-10T07:17:50;125;;;44;;
15504;SDS011;7854;52.184;5.942;2023-05-10T07:20:06;177;;;49;;
15504;SDS011;7854;52.184;5.942;2023-05-10T07:22:19;97;;;37;;
15504;SDS011;7854;52.184;5.942;2023-05-10T07:24:34;104;;;36;;
15504;SDS011;7854;52.184;5.942;2023-05-10T07:26:48;152;;;47;;
15504;SDS011;7854;52.184;5.942;2023-05-10T07:29:03;120;;;41;;
15504;SDS011;7854;52.184;5.942;2023-05-10T07:31:17;105;;;36;;
15504;SDS011;7854;52.184;5.942;2023-05-10T07:33:32;81;;;37;;
15504;SDS011;7854;52.184;5.942;2023-05-10T07:35:45;131;;;41;;
15504;SDS011;7854;52.184;5.942;2023-05-10T07:37:58;89;;;37;;
15504;SDS011;7854;52.184;5.942;2023-05-10T07:40:13;123;;;43;;
15504;SDS011;7854;52.184;5.942;2023-05-10T07:42:27;105;;;40;;
15504;SDS011;7854;52.184;5.942;2023-05-10T07:44:42;124;;;40;;
15504;SDS011;7854;52.184;5.942;2023-05-10T07:46:56;86;;;36;;
15504;SDS011;7854;52.184;5.942;2023-05-10T07:49:10;109;;;38;;
15504;SDS011;7854;52.184;5.942;2023-05-10T07:51:24;97;;;39;;
15504;SDS011;7854;52.184;5.942;2023-05-10T07:53:39;94;;;36;;
15504;SDS011;7854;52.184;5.942;2023-05-10T07:55:54;96;;;39;;
15504;SDS011;7854;52.184;5.942;2023-05-10T07:58:07;83;;;38;;
15504;SDS011;7854;52.184;5.942;2023-05-10T08:00:22;98;;;38;;
15504;SDS011;7854;52.184;5.942;2023-05-10T08:02:36;84;;;34;;
15504;SDS011;7854;52.184;5.942;2023-05-10T08:04:51;93;;;35;;
15504;SDS011;7854;52.184;5.942;2023-05-10T08:07:05;73;;;32;;
15504;SDS011;7854;52.184;5.942;2023-05-10T08:09:20;73;;;31;;
15504;SDS011;7854;52.184;5.942;2023-05-10T08:11:34;64;;;30;;
15504;SDS011;7854;52.184;5.942;2023-05-10T08:13:49;60;;;27;;
15504;SDS011;7854;52.184;5.942;2023-05-10T08:16:03;58;;;28;;
15504;SDS011;7854;52.184;5.942;2023-05-10T08:18:18;58;;;29;;
15504;SDS011;7854;52.184;5.942;2023-05-10T08:20:32;60;;;28;;
15504;SDS011;7854;52.184;5.942;2023-05-10T08:22:45;39;;;25;;
15504;SDS011;7854;52.184;5.942;2023-05-10T08:25:00;44;;;25;;
15504;SDS011;7854;52.184;5.942;2023-05-10T08:27:15;44;;;24;;
15504;SDS011;7854;52.184;5.942;2023-05-10T08:29:29;38;;;23;;
15504;SDS011;7854;52.184;5.942;2023-05-10T08:31:43;32;;;22;;
15504;SDS011;7854;52.184;5.942;2023-05-10T08:33:58;36;;;21;;
15504;SDS011;7854;52.184;5.942;2023-05-10T08:36:12;35;;;22;;
15504;SDS011;7854;52.184;5.942;2023-05-10T08:38:27;35;;;21;;
15504;SDS011;7854;52.184;5.942;2023-05-10T08:40:41;34;;;22;;
15504;SDS011;7854;52.184;5.942;2023-05-10T08:42:58;31;;;21;;
15504;SDS011;7854;52.184;5.942;2023-05-10T08:45:10;29;;;19;;
15504;SDS011;7854;52.184;5.942;2023-05-10T08:47:24;23;;;16;;
15504;SDS011;7854;52.184;5.942;2023-05-10T08:49:39;27;;;17;;
15504;SDS011;7854;52.184;5.942;2023-05-10T08:51:54;18;;;16;;
15504;SDS011;7854;52.184;5.942;2023-05-10T08:54:07;21;;;17;;
15504;SDS011;7854;52.184;5.942;2023-05-10T08:56:22;20;;;18;;
15504;SDS011;7854;52.184;5.942;2023-05-10T08:58:37;31;;;19;;
15504;SDS011;7854;52.184;5.942;2023-05-10T09:00:51;23;;;18;;
15504;SDS011;7854;52.184;5.942;2023-05-10T09:03:06;26;;;18;;
15504;SDS011;7854;52.184;5.942;2023-05-10T09:05:20;30;;;17;;
15504;SDS011;7854;52.184;5.942;2023-05-10T09:07:35;29;;;18;;
15504;SDS011;7854;52.184;5.942;2023-05-10T09:09:49;21;;;17;;
15504;SDS011;7854;52.184;5.942;2023-05-10T09:12:04;30;;;18;;
15504;SDS011;7854;52.184;5.942;2023-05-10T09:14:18;37;;;20;;
15504;SDS011;7854;52.184;5.942;2023-05-10T09:18:47;30;;;19;;
15504;SDS011;7854;52.184;5.942;2023-05-10T09:21:01;22;;;18;;
15504;SDS011;7854;52.184;5.942;2023-05-10T09:23:16;27;;;18;;
15504;SDS011;7854;52.184;5.942;2023-05-10T09:25:30;22;;;16;;
15504;SDS011;7854;52.184;5.942;2023-05-10T09:27:45;21;;;17;;
15504;SDS011;7854;52.184;5.942;2023-05-10T09:29:59;23;;;18;;
15504;SDS011;7854;52.184;5.942;2023-05-10T09:32:14;22;;;17;;
15504;SDS011;7854;52.184;5.942;2023-05-10T09:34:28;22;;;16;;
15504;SDS011;7854;52.184;5.942;2023-05-10T09:36:50;28;;;16;;
15504;SDS011;7854;52.184;5.942;2023-05-10T09:38:57;24;;;16;;
15504;SDS011;7854;52.184;5.942;2023-05-10T09:41:15;23;;;17;;
15504;SDS011;7854;52.184;5.942;2023-05-10T09:43:27;22;;;16;;
15504;SDS011;7854;52.184;5.942;2023-05-10T09:45:40;26;;;15;;
15504;SDS011;7854;52.184;5.942;2023-05-10T09:47:54;21;;;16;;
15504;SDS011;7854;52.184;5.942;2023-05-10T09:50:09;22;;;16;;
15504;SDS011;7854;52.184;5.942;2023-05-10T09:54:37;26;;;17;;
15504;SDS011;7854;52.184;5.942;2023-05-10T09:56:52;24;;;15;;
15504;SDS011;7854;52.184;5.942;2023-05-10T09:59:09;21;;;14;;
15504;SDS011;7854;52.184;5.942;2023-05-10T10:01:21;17;;;14;;
15504;SDS011;7854;52.184;5.942;2023-05-10T10:03:40;17;;;14;;
15504;SDS011;7854;52.184;5.942;2023-05-10T10:05:50;16;;;14;;
15504;SDS011;7854;52.184;5.942;2023-05-10T10:08:05;16;;;12;;
15504;SDS011;7854;52.184;5.942;2023-05-10T10:10:19;15;;;12;;
15504;SDS011;7854;52.184;5.942;2023-05-10T10:14:48;18;;;13;;
15504;SDS011;7854;52.184;5.942;2023-05-10T10:17:02;17;;;12;;
15504;SDS011;7854;52.184;5.942;2023-05-10T10:19:17;23;;;12;;
15504;SDS011;7854;52.184;5.942;2023-05-10T10:21:31;13;;;12;;
15504;SDS011;7854;52.184;5.942;2023-05-10T10:23:46;16;;;13;;
15504;SDS011;7854;52.184;5.942;2023-05-10T10:26:01;22;;;13;;
15504;SDS011;7854;52.184;5.942;2023-05-10T10:28:18;12;;;11;;
15504;SDS011;7854;52.184;5.942;2023-05-10T10:32:49;11;;;10;;
15504;SDS011;7854;52.184;5.942;2023-05-10T10:34:58;11;;;11;;
15504;SDS011;7854;52.184;5.942;2023-05-10T10:37:17;12;;;11;;
15504;SDS011;7854;52.184;5.942;2023-05-10T10:39:38;10;;;9;;
15504;SDS011;7854;52.184;5.942;2023-05-10T10:41:59;10;;;9;;
15504;SDS011;7854;52.184;5.942;2023-05-10T10:44:33;12;;;11;;
15504;SDS011;7854;52.184;5.942;2023-05-10T10:46:57;13;;;10;;
15504;SDS011;7854;52.184;5.942;2023-05-10T10:49:09;13;;;12;;
15504;SDS011;7854;52.184;5.942;2023-05-10T10:51:08;15;;;13;;
15504;SDS011;7854;52.184;5.942;2023-05-10T10:53:22;10;;;9;;
15504;SDS011;7854;52.184;5.942;2023-05-10T10:55:41;12;;;11;;
15504;SDS011;7854;52.184;5.942;2023-05-10T10:57:52;24;;;11;;
15504;SDS011;7854;52.184;5.942;2023-05-10T11:02:32;12;;;10;;
15504;SDS011;7854;52.184;5.942;2023-05-10T11:04:41;12;;;11;;
15504;SDS011;7854;52.184;5.942;2023-05-10T11:06:49;19;;;11;;
15504;SDS011;7854;52.184;5.942;2023-05-10T11:09:05;11;;;10;;
15504;SDS011;7854;52.184;5.942;2023-05-10T11:11:18;10;;;9;;
15504;SDS011;7854;52.184;5.942;2023-05-10T11:13:33;12;;;10;;
15504;SDS011;7854;52.184;5.942;2023-05-10T11:15:48;10;;;9;;
15504;SDS011;7854;52.184;5.942;2023-05-10T11:18:16;9;;;8;;
15504;SDS011;7854;52.184;5.942;2023-05-10T11:20:15;9;;;8;;
15504;SDS011;7854;52.184;5.942;2023-05-10T11:22:30;8;;;7;;
15504;SDS011;7854;52.184;5.942;2023-05-10T11:24:55;8;;;8;;
15504;SDS011;7854;52.184;5.942;2023-05-10T11:26:59;7;;;6;;
15504;SDS011;7854;52.184;5.942;2023-05-10T11:29:13;9;;;7;;
15504;SDS011;7854;52.184;5.942;2023-05-10T11:31:28;8;;;7;;
15504;SDS011;7854;52.184;5.942;2023-05-10T11:33:42;6;;;6;;
15504;SDS011;7854;52.184;5.942;2023-05-10T11:35:56;12;;;6;;
15504;SDS011;7854;52.184;5.942;2023-05-10T11:38:11;6;;;5;;
15504;SDS011;7854;52.184;5.942;2023-05-10T11:40:26;5;;;4;;
15504;SDS011;7854;52.184;5.942;2023-05-10T11:42:40;6;;;5;;
15504;SDS011;7854;52.184;5.942;2023-05-10T11:44:54;6;;;5;;
15504;SDS011;7854;52.184;5.942;2023-05-10T11:47:09;6;;;6;;
15504;SDS011;7854;52.184;5.942;2023-05-10T11:49:23;4;;;4;;
15504;SDS011;7854;52.184;5.942;2023-05-10T11:51:38;4;;;3;;
15504;SDS011;7854;52.184;5.942;2023-05-10T11:53:53;3;;;3;;
15504;SDS011;7854;52.184;5.942;2023-05-10T11:56:07;5;;;4;;
15504;SDS011;7854;52.184;5.942;2023-05-10T11:58:21;4;;;4;;
15504;SDS011;7854;52.184;5.942;2023-05-10T12:00:35;3;;;3;;
15504;SDS011;7854;52.184;5.942;2023-05-10T12:02:50;3;;;2;;
15504;SDS011;7854;52.184;5.942;2023-05-10T12:05:04;3;;;3;;
15504;SDS011;7854;52.184;5.942;2023-05-10T12:07:19;3;;;3;;
15504;SDS011;7854;52.184;5.942;2023-05-10T12:09:33;4;;;3;;
15504;SDS011;7854;52.184;5.942;2023-05-10T12:11:48;6;;;3;;
15504;SDS011;7854;52.184;5.942;2023-05-10T12:14:03;3;;;2;;
15504;SDS011;7854;52.184;5.942;2023-05-10T12:16:17;8;;;3;;
15504;SDS011;7854;52.184;5.942;2023-05-10T12:18:31;3;;;3;;
15504;SDS011;7854;52.184;5.942;2023-05-10T12:20:45;3;;;3;;
15504;SDS011;7854;52.184;5.942;2023-05-10T12:23:00;3;;;3;;
15504;SDS011;7854;52.184;5.942;2023-05-10T12:25:14;4;;;3;;
15504;SDS011;7854;52.184;5.942;2023-05-10T12:27:31;4;;;4;;
15504;SDS011;7854;52.184;5.942;2023-05-10T12:29:43;4;;;3;;
15504;SDS011;7854;52.184;5.942;2023-05-10T12:31:58;3;;;3;;
15504;SDS011;7854;52.184;5.942;2023-05-10T12:34:21;4;;;3;;
15504;SDS011;7854;52.184;5.942;2023-05-10T12:36:27;4;;;3;;
15504;SDS011;7854;52.184;5.942;2023-05-10T12:38:41;4;;;3;;
15504;SDS011;7854;52.184;5.942;2023-05-10T12:40:56;5;;;4;;
15504;SDS011;7854;52.184;5.942;2023-05-10T12:43:10;3;;;3;;
15504;SDS011;7854;52.184;5.942;2023-05-10T12:45:24;4;;;4;;
15504;SDS011;7854;52.184;5.942;2023-05-10T12:47:39;4;;;4;;
15504;SDS011;7854;52.184;5.942;2023-05-10T12:49:53;6;;;5;;
15504;SDS011;7854;52.184;5.942;2023-05-10T12:52:07;8;;;5;;
15504;SDS011;7854;52.184;5.942;2023-05-10T12:54:22;5;;;5;;
15504;SDS011;7854;52.184;5.942;2023-05-10T12:56:36;4;;;4;;
15504;SDS011;7854;52.184;5.942;2023-05-10T12:58:51;4;;;4;;
15504;SDS011;7854;52.184;5.942;2023-05-10T13:01:05;8;;;6;;
15504;SDS011;7854;52.184;5.942;2023-05-10T13:03:20;5;;;5;;
15504;SDS011;7854;52.184;5.942;2023-05-10T13:05:34;5;;;5;;
15504;SDS011;7854;52.184;5.942;2023-05-10T13:07:49;6;;;5;;
15504;SDS011;7854;52.184;5.942;2023-05-10T13:10:03;5;;;5;;
15504;SDS011;7854;52.184;5.942;2023-05-10T13:12:16;5;;;4;;
15504;SDS011;7854;52.184;5.942;2023-05-10T13:14:31;5;;;5;;
15504;SDS011;7854;52.184;5.942;2023-05-10T13:16:46;5;;;4;;
15504;SDS011;7854;52.184;5.942;2023-05-10T13:19:00;5;;;5;;
15504;SDS011;7854;52.184;5.942;2023-05-10T13:21:14;5;;;4;;
15504;SDS011;7854;52.184;5.942;2023-05-10T13:23:29;6;;;5;;
15504;SDS011;7854;52.184;5.942;2023-05-10T13:25:43;4;;;4;;
15504;SDS011;7854;52.184;5.942;2023-05-10T13:27:58;5;;;5;;
15504;SDS011;7854;52.184;5.942;2023-05-10T13:30:12;5;;;4;;
15504;SDS011;7854;52.184;5.942;2023-05-10T13:32:27;4;;;3;;
15504;SDS011;7854;52.184;5.942;2023-05-10T13:34:41;5;;;5;;
15504;SDS011;7854;52.184;5.942;2023-05-10T13:36:56;4;;;4;;
15504;SDS011;7854;52.184;5.942;2023-05-10T13:39:10;5;;;4;;
15504;SDS011;7854;52.184;5.942;2023-05-10T13:41:25;4;;;4;;
15504;SDS011;7854;52.184;5.942;2023-05-10T13:43:39;3;;;3;;
15504;SDS011;7854;52.184;5.942;2023-05-10T13:45:53;11;;;4;;
15504;SDS011;7854;52.184;5.942;2023-05-10T13:48:08;3;;;2;;
15504;SDS011;7854;52.184;5.942;2023-05-10T13:50:22;5;;;4;;
15504;SDS011;7854;52.184;5.942;2023-05-10T13:52:37;4;;;3;;
15504;SDS011;7854;52.184;5.942;2023-05-10T13:54:51;2;;;2;;
15504;SDS011;7854;52.184;5.942;2023-05-10T13:57:06;3;;;3;;
15504;SDS011;7854;52.184;5.942;2023-05-10T13:59:20;3;;;3;;
15504;SDS011;7854;52.184;5.942;2023-05-10T14:01:34;4;;;4;;
15504;SDS011;7854;52.184;5.942;2023-05-10T14:03:49;4;;;4;;
15504;SDS011;7854;52.184;5.942;2023-05-10T14:06:03;3;;;3;;
15504;SDS011;7854;52.184;5.942;2023-05-10T14:08:18;5;;;4;;
15504;SDS011;7854;52.184;5.942;2023-05-10T14:10:32;7;;;4;;
15504;SDS011;7854;52.184;5.942;2023-05-10T14:12:47;6;;;3;;
15504;SDS011;7854;52.184;5.942;2023-05-10T14:15:01;5;;;4;;
15504;SDS011;7854;52.184;5.942;2023-05-10T14:17:15;4;;;3;;
15504;SDS011;7854;52.184;5.942;2023-05-10T14:19:30;4;;;3;;
15504;SDS011;7854;52.184;5.942;2023-05-10T14:21:45;2;;;2;;
15504;SDS011;7854;52.184;5.942;2023-05-10T14:23:59;3;;;3;;
15504;SDS011;7854;52.184;5.942;2023-05-10T14:26:13;3;;;3;;
15504;SDS011;7854;52.184;5.942;2023-05-10T14:28:28;3;;;2;;
15504;SDS011;7854;52.184;5.942;2023-05-10T14:30:42;2;;;1;;
15504;SDS011;7854;52.184;5.942;2023-05-10T14:32:57;6;;;2;;
15504;SDS011;7854;52.184;5.942;2023-05-10T14:35:11;9;;;1;;
15504;SDS011;7854;52.184;5.942;2023-05-10T14:37:25;7;;;2;;
15504;SDS011;7854;52.184;5.942;2023-05-10T14:39:40;1;;;1;;
15504;SDS011;7854;52.184;5.942;2023-05-10T14:41:54;2;;;1;;
15504;SDS011;7854;52.184;5.942;2023-05-10T14:44:09;2;;;2;;
15504;SDS011;7854;52.184;5.942;2023-05-10T14:46:23;2;;;2;;
15504;SDS011;7854;52.184;5.942;2023-05-10T14:48:38;5;;;2;;
15504;SDS011;7854;52.184;5.942;2023-05-10T14:50:52;6;;;1;;
15504;SDS011;7854;52.184;5.942;2023-05-10T14:53:06;1;;;1;;
15504;SDS011;7854;52.184;5.942;2023-05-10T14:55:21;2;;;1;;
15504;SDS011;7854;52.184;5.942;2023-05-10T14:57:36;2;;;1;;